createdAt,value
2022-12-03T00:00:13.491Z,24.33
2022-12-03T00:02:41.685Z,26.63
2022-12-03T00:05:09.176Z,28.25
2022-12-03T00:07:35.973Z,27.63
2022-12-03T00:10:03.160Z,26.95
2022-12-03T00:12:29.829Z,25.60
2022-12-03T00:14:56.596Z,25.40
2022-12-03T00:17:23.352Z,26.58
2022-12-03T00:19:49.985Z,27.13
2022-12-03T00:22:16.615Z,24.70
2022-12-03T00:24:43.186Z,24.75
2022-12-03T00:27:09.762Z,23.40
2022-12-03T00:29:36.313Z,24.20
2022-12-03T00:32:02.933Z,21.92
2022-12-03T00:34:29.647Z,25.38
2022-12-03T00:36:56.238Z,24.67
2022-12-03T00:39:23.142Z,24.83
2022-12-03T00:41:49.747Z,24.02
2022-12-03T00:44:16.360Z,25.05
2022-12-03T00:46:42.941Z,23.92
2022-12-03T00:49:09.735Z,24.63
2022-12-03T00:51:36.302Z,23.73
2022-12-03T00:54:03.100Z,24.25
2022-12-03T00:56:29.712Z,26.02
2022-12-03T00:58:56.325Z,24.33
2022-12-03T01:01:22.988Z,25.20
2022-12-03T01:03:49.648Z,25.95
2022-12-03T01:06:16.306Z,22.90
2022-12-03T01:08:43.950Z,25.00
2022-12-03T01:11:30.582Z,25.67
2022-12-03T01:13:57.215Z,26.27
2022-12-03T01:16:23.903Z,27.77
2022-12-03T01:18:52.456Z,25.10
2022-12-03T01:21:19.564Z,25.85
2022-12-03T01:23:46.242Z,25.05
2022-12-03T01:26:12.887Z,26.52
2022-12-03T01:28:41.728Z,24.33
2022-12-03T01:31:28.053Z,24.30
2022-12-03T01:33:55.110Z,24.27
2022-12-03T01:36:21.917Z,24.55
2022-12-03T01:38:51.167Z,23.70
2022-12-03T01:41:19.179Z,23.80
2022-12-03T01:43:46.233Z,24.00
2022-12-03T01:46:16.686Z,25.10
2022-12-03T01:48:44.033Z,25.85
2022-12-03T01:51:12.125Z,26.35
2022-12-03T01:53:38.719Z,23.08
2022-12-03T01:56:05.790Z,23.73
2022-12-03T01:58:32.454Z,24.60
2022-12-03T02:01:04.345Z,23.65
2022-12-03T02:03:31.048Z,23.02
2022-12-03T02:05:57.701Z,23.92
2022-12-03T02:08:31.955Z,25.80
2022-12-03T02:11:05.983Z,23.48
2022-12-03T02:13:32.919Z,23.90
2022-12-03T02:15:59.680Z,24.17
2022-12-03T02:18:26.405Z,24.25
2022-12-03T02:21:27.868Z,24.60
2022-12-03T02:24:15.654Z,24.23
2022-12-03T02:26:42.250Z,25.63
2022-12-03T02:29:08.908Z,28.92
2022-12-03T02:31:35.544Z,24.95
2022-12-03T02:34:08.183Z,25.05
2022-12-03T02:36:36.042Z,23.50
2022-12-03T02:39:03.907Z,22.38
2022-12-03T02:41:49.461Z,21.30
2022-12-03T02:44:16.134Z,21.38
2022-12-03T02:46:42.839Z,20.60
2022-12-03T02:49:09.537Z,20.85
2022-12-03T02:51:36.144Z,21.05
2022-12-03T02:54:03.662Z,21.15
2022-12-03T02:56:33.050Z,22.80
2022-12-03T02:59:03.004Z,20.63
2022-12-03T03:01:29.911Z,20.77
2022-12-03T03:03:57.359Z,22.15
2022-12-03T03:06:24.159Z,21.95
2022-12-03T03:08:51.355Z,22.73
2022-12-03T03:11:18.164Z,21.60
2022-12-03T03:13:44.836Z,22.10
2022-12-03T03:16:11.558Z,21.30
2022-12-03T03:18:38.493Z,20.23
2022-12-03T03:21:06.061Z,19.77
2022-12-03T03:23:32.785Z,21.27
2022-12-03T03:26:09.154Z,20.25
2022-12-03T03:28:45.517Z,20.83
2022-12-03T03:31:15.508Z,21.45
2022-12-03T03:33:45.478Z,23.33
2022-12-03T03:36:13.469Z,22.00
2022-12-03T03:38:40.473Z,22.90
2022-12-03T03:41:09.162Z,22.50
2022-12-03T03:43:38.189Z,23.08
2022-12-03T03:46:06.465Z,21.63
2022-12-03T03:48:34.592Z,21.98
2022-12-03T03:51:03.587Z,23.30
2022-12-03T03:53:30.794Z,24.58
2022-12-03T03:55:57.464Z,23.30
2022-12-03T03:58:24.170Z,21.83
2022-12-03T04:00:51.946Z,22.70
2022-12-03T04:03:18.552Z,23.10
2022-12-03T04:05:45.205Z,23.88
2022-12-03T04:08:12.182Z,21.13
2022-12-03T04:10:57.343Z,23.73
2022-12-03T04:13:23.942Z,22.08
2022-12-03T04:15:50.512Z,22.38
2022-12-03T04:18:35.735Z,22.80
2022-12-03T04:21:21.141Z,23.05
2022-12-03T04:23:47.754Z,22.65
2022-12-03T04:26:32.915Z,23.58
2022-12-03T04:28:59.587Z,22.40
2022-12-03T04:31:45.252Z,22.35
2022-12-03T04:34:30.680Z,21.67
2022-12-03T04:36:57.459Z,21.17
2022-12-03T04:39:24.141Z,22.05
2022-12-03T04:41:50.768Z,20.15
2022-12-03T04:44:35.851Z,20.73
2022-12-03T04:47:08.253Z,20.13
2022-12-03T04:49:36.698Z,21.00
2022-12-03T04:52:03.761Z,20.92
2022-12-03T04:54:30.587Z,20.75
2022-12-03T04:56:57.402Z,19.90
2022-12-03T04:59:24.124Z,19.35
2022-12-03T05:01:50.956Z,20.35
2022-12-03T05:04:17.660Z,19.17
2022-12-03T05:06:44.643Z,20.10
2022-12-03T05:09:12.010Z,20.00
2022-12-03T05:11:39.057Z,19.27
2022-12-03T05:14:06.184Z,19.83
2022-12-03T05:16:32.911Z,19.83
2022-12-03T05:18:59.639Z,19.27
2022-12-03T05:21:26.324Z,18.77
2022-12-03T05:23:52.923Z,19.27
2022-12-03T05:26:19.553Z,17.88
2022-12-03T05:28:46.215Z,20.40
2022-12-03T05:31:13.102Z,19.27
2022-12-03T05:33:44.253Z,19.30
2022-12-03T05:36:11.289Z,19.10
2022-12-03T05:38:37.924Z,20.13
2022-12-03T05:41:24.975Z,18.75
2022-12-03T05:43:51.596Z,20.00
2022-12-03T05:46:18.520Z,18.63
2022-12-03T05:48:45.216Z,20.75
2022-12-03T05:51:11.923Z,19.95
2022-12-03T05:53:38.537Z,20.67
2022-12-03T05:56:05.496Z,20.52
2022-12-03T05:58:32.243Z,20.10
2022-12-03T06:00:58.829Z,21.52
2022-12-03T06:03:25.563Z,19.65
2022-12-03T06:05:52.240Z,20.30
2022-12-03T06:08:18.933Z,21.15
2022-12-03T06:10:45.606Z,21.65
2022-12-03T06:13:12.214Z,21.02
2022-12-03T06:15:43.443Z,21.17
2022-12-03T06:18:10.523Z,21.85
2022-12-03T06:20:37.137Z,21.77
2022-12-03T06:23:03.765Z,20.35
2022-12-03T06:25:30.406Z,21.67
2022-12-03T06:27:57.070Z,22.88
2022-12-03T06:30:23.646Z,22.33
2022-12-03T06:32:50.188Z,22.05
2022-12-03T06:35:16.923Z,21.70
2022-12-03T06:37:43.541Z,23.48
2022-12-03T06:40:10.727Z,21.92
2022-12-03T06:42:37.363Z,22.30
2022-12-03T06:45:04.358Z,22.35
2022-12-03T06:47:30.922Z,23.92
2022-12-03T06:49:57.522Z,22.95
2022-12-03T06:52:24.147Z,24.42
2022-12-03T06:54:50.916Z,22.77
2022-12-03T06:57:17.723Z,23.83
2022-12-03T06:59:44.312Z,23.55
2022-12-03T07:02:12.452Z,22.40
2022-12-03T07:04:52.541Z,23.98
2022-12-03T07:07:19.195Z,24.30
2022-12-03T07:09:45.829Z,22.88
2022-12-03T07:12:12.735Z,23.70
2022-12-03T07:14:39.311Z,22.23
2022-12-03T07:17:05.972Z,22.83
2022-12-03T07:19:33.335Z,22.92
2022-12-03T07:22:00.374Z,23.40
2022-12-03T07:24:27.569Z,23.95
2022-12-03T07:26:54.187Z,22.63
2022-12-03T07:29:20.776Z,24.60
2022-12-03T07:31:47.680Z,24.38
2022-12-03T07:34:14.400Z,23.48
2022-12-03T07:36:41.116Z,23.08
2022-12-03T07:39:07.754Z,22.27
2022-12-03T07:41:34.371Z,24.30
2022-12-03T07:44:01.048Z,23.25
2022-12-03T07:46:27.759Z,21.85
2022-12-03T07:48:54.444Z,23.38
2022-12-03T07:51:21.080Z,22.95
2022-12-03T07:53:47.726Z,22.58
2022-12-03T07:56:14.377Z,22.95
2022-12-03T07:58:41.067Z,22.98
2022-12-03T08:01:07.767Z,21.95
2022-12-03T08:03:34.436Z,22.42
2022-12-03T08:06:01.040Z,21.30
2022-12-03T08:08:27.630Z,23.02
2022-12-03T08:10:54.287Z,20.95
2022-12-03T08:13:20.888Z,21.88
2022-12-03T08:15:47.531Z,21.17
2022-12-03T08:18:17.857Z,20.35
2022-12-03T08:20:46.143Z,21.33
2022-12-03T08:23:22.040Z,21.33
2022-12-03T08:25:50.608Z,21.05
2022-12-03T08:28:21.002Z,21.45
2022-12-03T08:30:59.149Z,20.80
2022-12-03T08:33:35.105Z,22.20
2022-12-03T08:36:22.212Z,19.95
2022-12-03T08:38:55.162Z,20.20
2022-12-03T08:41:41.081Z,21.52
2022-12-03T08:44:37.019Z,21.45
2022-12-03T08:47:09.600Z,20.40
2022-12-03T08:49:37.088Z,21.73
2022-12-03T08:52:15.830Z,18.90
2022-12-03T08:54:43.624Z,21.15
2022-12-03T08:57:29.613Z,21.17
2022-12-03T09:00:13.224Z,22.48
2022-12-03T09:02:47.338Z,21.02
2022-12-03T09:05:19.549Z,23.35
2022-12-03T09:07:46.388Z,23.63
2022-12-03T09:10:13.006Z,22.38
2022-12-03T09:12:39.625Z,22.73
2022-12-03T09:15:06.868Z,21.17
2022-12-03T09:17:33.980Z,22.27
2022-12-03T09:20:00.738Z,21.63
2022-12-03T09:22:27.375Z,21.90
2022-12-03T09:24:54.369Z,21.42
2022-12-03T09:27:22.630Z,21.23
2022-12-03T09:29:50.113Z,21.60
2022-12-03T09:32:18.798Z,21.30
2022-12-03T09:34:45.810Z,22.40
2022-12-03T09:37:12.432Z,21.90
2022-12-03T09:39:39.058Z,21.52
2022-12-03T09:42:09.449Z,21.17
2022-12-03T09:44:36.538Z,22.85
2022-12-03T09:47:04.531Z,21.08
2022-12-03T09:49:32.637Z,21.63
2022-12-03T09:52:01.649Z,20.80
2022-12-03T09:54:29.674Z,21.35
2022-12-03T09:56:57.305Z,23.50
2022-12-03T09:59:29.501Z,20.52
2022-12-03T10:01:56.336Z,21.20
2022-12-03T10:04:23.208Z,21.80
2022-12-03T10:06:50.438Z,20.98
2022-12-03T10:09:24.892Z,21.10
2022-12-03T10:11:51.768Z,20.98
2022-12-03T10:14:19.747Z,20.85
2022-12-03T10:16:46.946Z,21.48
2022-12-03T10:19:24.169Z,19.83
2022-12-03T10:21:51.065Z,21.70
2022-12-03T10:24:28.892Z,19.83
2022-12-03T10:26:58.613Z,20.00
2022-12-03T10:29:33.132Z,20.25
2022-12-03T10:32:06.776Z,19.55
2022-12-03T10:34:39.334Z,20.73
2022-12-03T10:37:18.476Z,21.38
2022-12-03T10:40:01.803Z,19.40
2022-12-03T10:42:33.930Z,20.83
2022-12-03T10:45:07.801Z,18.52
2022-12-03T10:47:34.531Z,18.65
2022-12-03T10:50:04.264Z,19.25
2022-12-03T10:52:31.168Z,18.88
2022-12-03T10:54:58.142Z,17.58
2022-12-03T10:57:25.284Z,17.65
2022-12-03T10:59:52.102Z,18.40
2022-12-03T11:02:22.705Z,16.52
2022-12-03T11:04:50.876Z,18.05
2022-12-03T11:07:20.052Z,18.70
2022-12-03T11:09:49.857Z,18.38
2022-12-03T11:12:25.003Z,20.08
2022-12-03T11:14:52.159Z,18.30
2022-12-03T11:17:25.141Z,19.02
2022-12-03T11:19:52.326Z,14.23
2022-12-03T11:22:28.965Z,18.98
2022-12-03T11:25:26.926Z,20.10
2022-12-03T11:28:11.949Z,19.75
2022-12-03T11:30:50.689Z,20.90
2022-12-03T11:33:27.208Z,20.02
2022-12-03T11:36:02.664Z,20.33
2022-12-03T11:38:38.383Z,19.35
2022-12-03T11:41:15.063Z,20.35
2022-12-03T11:43:53.795Z,22.33
2022-12-03T11:46:24.337Z,21.60
2022-12-03T11:48:53.986Z,20.50
2022-12-03T11:51:23.480Z,21.58
2022-12-03T11:53:52.409Z,21.50
2022-12-03T11:56:25.441Z,22.58
2022-12-03T11:59:00.930Z,22.20
2022-12-03T12:01:38.809Z,23.85
2022-12-03T12:04:06.976Z,26.23
2022-12-03T12:06:44.652Z,23.90
2022-12-03T12:09:12.845Z,25.35
2022-12-03T12:11:41.299Z,25.83
2022-12-03T12:14:09.912Z,24.33
2022-12-03T12:16:54.995Z,26.20
2022-12-03T12:19:33.555Z,28.38
2022-12-03T12:22:17.980Z,25.92
2022-12-03T12:24:52.782Z,25.40
2022-12-03T12:27:31.380Z,26.00
2022-12-03T12:30:04.818Z,25.73
2022-12-03T12:32:45.880Z,25.35
2022-12-03T12:35:23.980Z,24.42
2022-12-03T12:37:59.055Z,23.77
2022-12-03T12:40:32.791Z,25.30
2022-12-03T12:43:25.864Z,27.08
2022-12-03T12:45:59.480Z,25.75
2022-12-03T12:48:33.660Z,25.83
2022-12-03T12:51:01.583Z,24.75
2022-12-03T12:53:33.957Z,24.63
2022-12-03T12:56:22.427Z,24.50
2022-12-03T12:58:49.198Z,26.10
2022-12-03T13:01:21.555Z,27.60
2022-12-03T13:03:51.384Z,27.30
2022-12-03T13:06:27.942Z,27.70
2022-12-03T13:08:55.209Z,23.77
2022-12-03T13:11:41.299Z,25.85
2022-12-03T13:14:32.014Z,25.42
2022-12-03T13:17:01.907Z,23.55
2022-12-03T13:19:43.267Z,24.90
2022-12-03T13:22:18.356Z,25.10
2022-12-03T13:24:52.965Z,24.65
2022-12-03T13:27:19.689Z,25.23
2022-12-03T13:29:55.044Z,25.52
2022-12-03T13:32:31.397Z,24.80
2022-12-03T13:35:16.101Z,24.58
2022-12-03T13:37:43.018Z,25.00
2022-12-03T13:40:25.993Z,25.83
2022-12-03T13:42:54.152Z,24.17
2022-12-03T13:45:20.769Z,23.67
2022-12-03T13:47:55.102Z,26.13
2022-12-03T13:50:39.242Z,26.60
2022-12-03T13:53:11.659Z,25.67
2022-12-03T13:55:42.721Z,25.38
2022-12-03T13:58:09.355Z,23.58
2022-12-03T14:00:36.043Z,25.10
2022-12-03T14:03:02.990Z,24.50
2022-12-03T14:05:29.608Z,26.15
2022-12-03T14:08:02.026Z,25.15
2022-12-03T14:10:29.691Z,25.30
2022-12-03T14:12:56.800Z,23.08
2022-12-03T14:15:24.830Z,24.80
2022-12-03T14:17:51.635Z,23.45
2022-12-03T14:20:19.013Z,25.38
2022-12-03T14:22:45.848Z,23.88
2022-12-03T14:25:12.531Z,25.88
2022-12-03T14:27:39.256Z,25.48
2022-12-03T14:30:06.487Z,22.92
2022-12-03T14:32:33.076Z,26.08
2022-12-03T14:35:00.460Z,25.10
2022-12-03T14:37:28.507Z,25.13
2022-12-03T14:39:55.203Z,24.85
2022-12-03T14:42:22.025Z,25.58
2022-12-03T14:44:52.014Z,24.58
2022-12-03T14:47:22.479Z,26.58
2022-12-03T14:49:49.704Z,23.02
2022-12-03T14:52:16.709Z,25.02
2022-12-03T14:54:43.392Z,25.45
2022-12-03T14:57:12.581Z,25.38
2022-12-03T14:59:41.121Z,26.55
2022-12-03T15:02:08.789Z,26.65
2022-12-03T15:04:35.513Z,27.55
2022-12-03T15:07:02.124Z,26.90
2022-12-03T15:09:28.881Z,26.83
2022-12-03T15:11:55.555Z,27.65
2022-12-03T15:14:22.466Z,28.08
2022-12-03T15:16:49.102Z,25.77
2022-12-03T15:19:16.325Z,26.77
2022-12-03T15:21:42.990Z,29.20
2022-12-03T15:24:10.416Z,28.40
2022-12-03T15:26:37.191Z,27.35
2022-12-03T15:29:03.754Z,26.52
2022-12-03T15:31:30.434Z,26.13
2022-12-03T15:33:57.074Z,26.63
2022-12-03T15:36:23.660Z,28.98
2022-12-03T15:38:50.298Z,26.60
2022-12-03T15:41:29.529Z,26.23
2022-12-03T15:43:58.669Z,28.30
2022-12-03T15:46:27.559Z,27.90
2022-12-03T15:48:55.360Z,28.80
2022-12-03T15:51:21.983Z,27.30
2022-12-03T15:53:48.800Z,27.00
2022-12-03T15:56:15.629Z,26.40
2022-12-03T15:58:42.649Z,27.00
2022-12-03T16:01:09.966Z,25.67
2022-12-03T16:03:37.010Z,24.30
2022-12-03T16:06:06.395Z,25.67
2022-12-03T16:08:33.000Z,28.10
2022-12-03T16:10:59.617Z,27.50
2022-12-03T16:13:26.193Z,26.95
2022-12-03T16:15:52.996Z,25.33
2022-12-03T16:18:19.624Z,27.50
2022-12-03T16:20:46.230Z,26.75
2022-12-03T16:23:12.893Z,26.27
2022-12-03T16:25:39.445Z,26.35
2022-12-03T16:28:06.020Z,26.60
2022-12-03T16:30:32.678Z,24.67
2022-12-03T16:32:59.282Z,25.48
2022-12-03T16:35:25.956Z,25.52
2022-12-03T16:37:52.604Z,26.67
2022-12-03T16:40:19.244Z,28.70
2022-12-03T16:42:45.832Z,29.08
2022-12-03T16:45:23.089Z,30.45
2022-12-03T16:47:50.454Z,31.48
2022-12-03T16:50:24.407Z,33.35
2022-12-03T16:52:55.722Z,46.30
2022-12-03T16:55:22.395Z,39.80
2022-12-03T16:57:49.251Z,44.40
2022-12-03T17:00:17.003Z,34.00
2022-12-03T17:02:43.673Z,31.92
2022-12-03T17:05:10.355Z,33.35
2022-12-03T17:07:37.048Z,32.05
2022-12-03T17:10:04.284Z,33.95
2022-12-03T17:12:54.143Z,32.40
2022-12-03T17:15:17.529Z,31.90
2022-12-03T17:17:44.135Z,36.80
2022-12-03T17:20:12.472Z,32.63
2022-12-03T17:22:39.249Z,32.42
2022-12-03T17:25:06.581Z,31.88
2022-12-03T17:27:33.182Z,29.95
2022-12-03T17:29:59.770Z,31.73
2022-12-03T17:32:26.388Z,30.35
2022-12-03T17:34:52.980Z,31.92
2022-12-03T17:37:19.705Z,32.70
2022-12-03T17:39:46.366Z,32.25
2022-12-03T17:42:12.935Z,34.75
2022-12-03T17:44:39.549Z,32.97
2022-12-03T17:47:08.324Z,33.05
2022-12-03T17:49:34.961Z,32.67
2022-12-03T17:52:01.598Z,33.83
2022-12-03T17:54:49.067Z,32.38
2022-12-03T17:57:14.968Z,31.65
2022-12-03T17:59:41.569Z,28.05
2022-12-03T18:02:08.197Z,27.80
2022-12-03T18:04:35.022Z,27.35
2022-12-03T18:07:02.560Z,27.38
2022-12-03T18:09:29.394Z,26.73
2022-12-03T18:11:56.061Z,26.00
2022-12-03T18:14:22.662Z,27.13
2022-12-03T18:16:49.319Z,27.90
2022-12-03T18:19:15.959Z,27.05
2022-12-03T18:21:42.577Z,27.13
2022-12-03T18:24:12.167Z,28.10
2022-12-03T18:26:38.806Z,29.25
2022-12-03T18:29:05.460Z,28.27
2022-12-03T18:31:32.207Z,30.27
2022-12-03T18:33:58.837Z,31.45
2022-12-03T18:36:29.863Z,31.50
2022-12-03T18:38:58.337Z,31.58
2022-12-03T18:41:25.371Z,31.88
2022-12-03T18:43:52.141Z,30.77
2022-12-03T18:49:07.030Z,32.05
2022-12-03T18:51:33.872Z,29.20
2022-12-03T18:54:00.449Z,30.42
2022-12-03T18:56:27.182Z,29.48
2022-12-03T18:58:53.771Z,27.77
2022-12-03T19:01:22.578Z,27.85
2022-12-03T19:03:50.344Z,27.50
2022-12-03T19:06:20.067Z,30.63
2022-12-03T19:08:49.502Z,28.90
2022-12-03T19:11:16.153Z,29.40
2022-12-03T19:13:42.844Z,29.65
2022-12-03T19:16:10.369Z,28.60
2022-12-03T19:18:37.179Z,30.17
2022-12-03T19:21:12.654Z,26.13
2022-12-03T19:23:40.022Z,28.88
2022-12-03T19:26:09.130Z,28.60
2022-12-03T19:28:36.115Z,29.90
2022-12-03T19:31:04.647Z,26.90
2022-12-03T19:33:32.694Z,26.38
2022-12-03T19:36:00.375Z,29.58
2022-12-03T19:38:28.342Z,28.75
2022-12-03T19:40:58.696Z,27.17
2022-12-03T19:43:25.520Z,28.50
2022-12-03T19:45:53.223Z,27.73
2022-12-03T19:48:22.863Z,30.50
2022-12-03T19:51:07.844Z,28.35
2022-12-03T19:53:40.579Z,28.70
2022-12-03T19:56:18.568Z,28.42
2022-12-03T19:58:46.566Z,29.30
2022-12-03T20:01:18.801Z,28.55
2022-12-03T20:03:47.733Z,30.33
2022-12-03T20:06:17.354Z,31.52
2022-12-03T20:08:44.454Z,30.42
2022-12-03T20:11:23.571Z,30.88
2022-12-03T20:13:56.880Z,31.58
2022-12-03T20:16:25.093Z,31.85
2022-12-03T20:18:55.497Z,29.02
2022-12-03T20:21:22.141Z,30.63
2022-12-03T20:23:48.877Z,30.95
2022-12-03T20:26:18.823Z,29.10
2022-12-03T20:28:47.880Z,26.83
2022-12-03T20:31:17.482Z,27.08
2022-12-03T20:33:50.610Z,28.13
2022-12-03T20:36:20.698Z,27.55
2022-12-03T20:38:47.358Z,27.63
2022-12-03T20:41:16.626Z,25.55
2022-12-03T20:43:43.261Z,24.13
2022-12-03T20:46:21.668Z,24.67
2022-12-03T20:48:48.747Z,25.80
2022-12-03T20:51:20.320Z,23.88
2022-12-03T20:53:47.353Z,25.27
2022-12-03T20:56:32.731Z,24.83
2022-12-03T20:59:01.695Z,24.40
2022-12-03T21:01:28.484Z,26.08
2022-12-03T21:03:56.676Z,21.42
2022-12-03T21:06:25.456Z,24.52
2022-12-03T21:08:56.246Z,28.05
2022-12-03T21:11:26.340Z,25.65
2022-12-03T21:13:54.051Z,24.20
2022-12-03T21:16:45.554Z,24.63
2022-12-03T21:19:11.208Z,25.23
2022-12-03T21:21:38.018Z,27.52
2022-12-03T21:24:04.916Z,26.27
2022-12-03T21:26:31.645Z,25.95
2022-12-03T21:28:58.301Z,26.42
2022-12-03T21:31:26.497Z,26.65
2022-12-03T21:33:54.451Z,24.30
2022-12-03T21:36:21.446Z,25.70
2022-12-03T21:38:48.320Z,25.85
2022-12-03T21:41:15.399Z,25.15
2022-12-03T21:43:43.038Z,23.90
2022-12-03T21:47:11.640Z,24.40
2022-12-03T21:48:59.970Z,26.25
2022-12-03T21:51:26.575Z,24.95
2022-12-03T21:53:53.461Z,27.00
2022-12-03T21:56:20.243Z,27.00
2022-12-03T21:58:46.935Z,25.85
2022-12-03T22:01:24.048Z,25.15
2022-12-03T22:03:51.123Z,23.48
2022-12-03T22:06:18.602Z,24.92
2022-12-03T22:08:45.556Z,24.30
2022-12-03T22:11:15.268Z,24.17
2022-12-03T22:13:42.647Z,24.52
2022-12-03T22:16:15.242Z,24.90
2022-12-03T22:18:42.642Z,23.77
2022-12-03T22:21:12.051Z,25.17
2022-12-03T22:23:38.768Z,24.27
2022-12-03T22:26:08.133Z,24.30
2022-12-03T22:28:35.259Z,26.40
2022-12-03T22:31:06.610Z,24.83
2022-12-03T22:33:33.281Z,26.55
2022-12-03T22:36:02.548Z,24.92
2022-12-03T22:38:30.707Z,24.92
2022-12-03T22:40:57.689Z,25.45
2022-12-03T22:43:24.583Z,23.70
2022-12-03T22:45:55.619Z,24.70
2022-12-03T22:48:23.518Z,25.13
2022-12-03T22:50:52.111Z,25.30
2022-12-03T22:53:21.208Z,26.05
2022-12-03T22:55:56.234Z,24.55
2022-12-03T22:58:23.474Z,24.42
2022-12-03T23:00:50.895Z,25.05
2022-12-03T23:03:17.771Z,25.83
2022-12-03T23:05:44.559Z,24.52
2022-12-03T23:08:14.405Z,26.00
2022-12-03T23:10:43.808Z,24.40
2022-12-03T23:13:11.310Z,25.48
2022-12-03T23:15:43.174Z,26.85
2022-12-03T23:18:09.851Z,28.58
2022-12-03T23:20:41.929Z,27.00
2022-12-03T23:23:08.615Z,25.38
2022-12-03T23:25:35.286Z,27.40
2022-12-03T23:28:01.874Z,26.30
2022-12-03T23:30:28.487Z,23.73
2022-12-03T23:32:55.111Z,24.58
2022-12-03T23:35:21.732Z,24.58
2022-12-03T23:37:48.342Z,27.02
2022-12-03T23:40:14.993Z,26.35
2022-12-03T23:42:41.601Z,26.00
2022-12-03T23:45:08.740Z,26.67
2022-12-03T23:47:35.365Z,27.10
2022-12-03T23:50:02.659Z,25.63
2022-12-03T23:52:29.284Z,25.77
2022-12-03T23:54:56.052Z,25.33
2022-12-03T23:57:22.740Z,25.63
2022-12-03T23:59:49.490Z,26.08
